Time;durP1;ratioP1;P1;durP2;ratioP2;P2;SDS_P1;SDS_P2;PMS_P1;PMS_P2;Temp;Humidity;BMP_temperature;BMP_pressure;BME280_temperature;BME280_humidity;BME280_pressure;Samples;Min_cycle;Max_cycle;Signal;HPM_P1;HPM_P2
2022/09/28 00:01:18;;;;;;;6.78;3.40;;;409.80;2355.20;;;;;;5075373;28;20095;-74
2022/09/28 00:03:46;;;;;;;9.55;3.55;;;409.60;2355.20;;;;;;5074141;28;20052;-73
2022/09/28 00:06:14;;;;;;;8.65;3.85;;;384.70;2329.60;;;;;;5071773;28;20028;-74
2022/09/28 00:08:40;;;;;;;7.07;3.60;;;384.80;2329.60;;;;;;5071110;28;20051;-74
2022/09/28 00:11:10;;;;;;;6.57;3.90;;;384.70;2329.60;;;;;;5074211;28;20048;-74
2022/09/28 00:13:35;;;;;;;9.48;4.28;;;384.60;2329.60;;;;;;5071530;28;20036;-74
2022/09/28 00:16:07;;;;;;;8.85;4.32;;;384.70;2329.60;;;;;;5074175;28;20028;-73
2022/09/28 00:18:34;;;;;;;9.32;4.20;;;384.90;2329.60;;;;;;5071160;28;20016;-74
2022/09/28 00:21:04;;;;;;;9.20;3.90;;;384.90;2329.60;;;;;;5069057;28;20458;-73
2022/09/28 00:23:30;;;;;;;8.55;3.75;;;384.90;2329.60;;;;;;5071365;28;20020;-74
2022/09/28 00:26:03;;;;;;;7.20;3.75;;;384.80;2329.60;;;;;;5069400;28;20028;-73
2022/09/28 00:28:30;;;;;;;5.57;3.58;;;384.90;2329.60;;;;;;5069115;28;20457;-73
2022/09/28 00:30:56;;;;;;;6.43;3.97;;;384.90;2329.60;;;;;;5073937;28;20033;-73
2022/09/28 00:33:22;;;;;;;16.98;4.93;;;384.90;2329.60;;;;;;5073860;28;20024;-73
2022/09/28 00:35:55;;;;;;;5.95;3.90;;;384.90;2329.60;;;;;;5073806;28;20017;-73
2022/09/28 00:38:21;;;;;;;8.40;4.70;;;409.60;2355.20;;;;;;5073701;28;20024;-73
2022/09/28 00:40:47;;;;;;;7.80;3.90;;;384.90;2329.60;;;;;;5073763;28;20021;-73
2022/09/28 00:43:17;;;;;;;14.18;4.13;;;409.60;2355.20;;;;;;5070876;28;20486;-73
2022/09/28 00:45:43;;;;;;;10.05;3.83;;;409.60;2355.20;;;;;;5071070;28;20028;-73
2022/09/28 00:48:10;;;;;;;9.10;4.13;;;409.70;2355.20;;;;;;5070994;28;20060;-73
2022/09/28 00:50:37;;;;;;;7.07;3.60;;;409.60;2355.20;;;;;;5071122;28;20017;-73
2022/09/28 00:53:11;;;;;;;7.15;4.32;;;409.60;2355.20;;;;;;5070658;28;20021;-73
2022/09/28 00:55:40;;;;;;;8.90;4.13;;;409.60;2355.20;;;;;;5070796;28;20546;-73
2022/09/28 00:58:10;;;;;;;5.85;3.92;;;409.60;2355.20;;;;;;5068256;28;20024;-73
2022/09/28 01:00:39;;;;;;;8.43;3.80;;;384.90;2329.60;;;;;;5070722;28;20073;-73
2022/09/28 01:03:06;;;;;;;5.55;3.67;;;409.60;2355.20;;;;;;5070836;28;20036;-74
2022/09/28 01:05:35;;;;;;;17.92;4.47;;;409.60;2355.20;;;;;;5070858;28;20021;-74
2022/09/28 01:08:03;;;;;;;11.43;4.55;;;384.90;2329.60;;;;;;5073824;28;20021;-74
2022/09/28 01:10:30;;;;;;;6.80;3.83;;;384.90;2329.60;;;;;;5071021;28;20023;-73
2022/09/28 01:12:57;;;;;;;11.32;5.10;;;409.60;2355.20;;;;;;5070621;28;20063;-73
2022/09/28 01:15:26;;;;;;;7.60;3.50;;;409.60;2355.20;;;;;;5073498;28;20028;-73
2022/09/28 01:18:01;;;;;;;7.22;3.90;;;409.60;2355.20;;;;;;5073460;28;20016;-73
2022/09/28 01:21:09;;;;;;;6.68;4.05;;;384.90;2329.60;;;;;;5070652;28;20017;-73
2022/09/28 01:24:20;;;;;;;7.30;4.22;;;409.60;2355.20;;;;;;5068975;28;20036;-74
2022/09/28 01:26:58;;;;;;;8.30;4.07;;;410.00;2355.20;;;;;;5067061;28;20431;-73
2022/09/28 01:29:37;;;;;;;10.48;4.28;;;409.60;2355.20;;;;;;5073327;28;20366;-73
2022/09/28 01:32:13;;;;;;;7.53;3.78;;;409.60;2355.20;;;;;;5070393;28;20103;-73
2022/09/28 01:34:42;;;;;;;;;;;409.70;2355.20;;;;;;5069797;28;20028;-73
2022/09/28 01:37:13;;;;;;;11.52;5.22;;;409.70;2355.20;;;;;;5067682;28;19904;-73
2022/09/28 01:39:45;;;;;;;9.18;4.47;;;409.60;2355.20;;;;;;5070669;28;20012;-73
2022/09/28 01:42:26;;;;;;;7.53;4.07;;;409.60;2355.20;;;;;;5074490;28;20012;-74
2022/09/28 01:44:55;;;;;;;8.02;4.75;;;409.60;2355.20;;;;;;5075558;28;20044;-74
2022/09/28 01:47:25;;;;;;;6.70;4.78;;;409.60;2355.20;;;;;;5078053;28;20100;-74
2022/09/28 01:50:16;;;;;;;9.07;4.75;;;409.60;2355.20;;;;;;5071459;28;20016;-74
2022/09/28 01:52:48;;;;;;;11.55;5.13;;;409.70;2355.20;;;;;;5073107;28;20028;-73
2022/09/28 01:55:25;;;;;;;7.32;4.88;;;409.70;2355.20;;;;;;5071995;28;20051;-73
2022/09/28 01:57:53;;;;;;;9.88;4.68;;;409.60;2355.20;;;;;;5071169;28;20019;-73
2022/09/28 02:00:22;;;;;;;6.60;4.72;;;409.60;2355.20;;;;;;5076541;28;20020;-74
2022/09/28 02:02:53;;;;;;;7.55;4.05;;;409.60;2355.20;;;;;;5073798;28;20027;-73
2022/09/28 02:05:22;;;;;;;8.48;5.30;;;409.60;2355.20;;;;;;5073637;28;20017;-74
2022/09/28 02:07:55;;;;;;;13.02;5.20;;;409.60;2355.20;;;;;;5073548;28;20089;-74
2022/09/28 02:10:29;;;;;;;7.13;4.55;;;409.60;2355.20;;;;;;5076447;28;20017;-73
2022/09/28 02:13:11;;;;;;;9.93;5.75;;;384.90;2329.60;;;;;;5076883;28;20036;-73
2022/09/28 02:15:53;;;;;;;10.57;5.68;;;409.60;2355.20;;;;;;5076389;28;20031;-74
2022/09/28 02:18:19;;;;;;;6.10;4.13;;;409.60;2355.20;;;;;;5071837;28;20090;-74
2022/09/28 02:21:03;;;;;;;7.45;4.65;;;409.70;2355.20;;;;;;5081872;28;20485;-73
2022/09/28 02:23:33;;;;;;;9.57;4.90;;;409.70;2355.20;;;;;;5073454;28;20438;-73
2022/09/28 02:26:07;;;;;;;7.90;4.88;;;409.60;2355.20;;;;;;5076071;28;20036;-74
2022/09/28 02:28:33;;;;;;;7.53;4.95;;;409.70;2355.20;;;;;;5070729;28;20051;-73
2022/09/28 02:30:59;;;;;;;8.55;4.93;;;409.60;2355.20;;;;;;5073417;28;20044;-73
2022/09/28 02:33:37;;;;;;;9.00;5.15;;;409.60;2355.20;;;;;;5081527;28;20040;-73
2022/09/28 02:36:04;;;;;;;12.13;5.72;;;409.60;2355.20;;;;;;5075125;28;20024;-73
2022/09/28 02:38:30;;;;;;;10.70;5.28;;;409.60;2355.20;;;;;;5078416;28;20585;-73
2022/09/28 02:41:04;;;;;;;9.05;4.80;;;409.60;2355.20;;;;;;5073128;28;20028;-73
2022/09/28 02:43:40;;;;;;;10.13;5.47;;;409.60;2355.20;;;;;;5075144;28;20045;-73
2022/09/28 02:46:11;;;;;;;6.93;4.90;;;409.60;2355.20;;;;;;5075680;28;20020;-74
2022/09/28 02:48:46;;;;;;;7.30;4.50;;;409.60;2355.20;;;;;;5071211;28;20024;-73
2022/09/28 02:51:26;;;;;;;8.48;4.90;;;384.90;2329.60;;;;;;5072866;28;20028;-74
2022/09/28 02:54:10;;;;;;;7.60;4.93;;;384.90;2329.60;;;;;;5074405;28;20389;-74
2022/09/28 02:57:01;;;;;;;8.27;4.68;;;384.90;2329.60;;;;;;5070650;28;20040;-73
2022/09/28 03:00:09;;;;;;;6.38;4.50;;;384.90;2329.60;;;;;;5075019;28;20125;-73
2022/09/28 03:02:53;;;;;;;7.57;5.07;;;384.90;2329.60;;;;;;5075483;28;20523;-73
2022/09/28 03:05:28;;;;;;;7.50;4.60;;;384.80;2329.60;;;;;;5070643;28;20389;-74
2022/09/28 03:07:58;;;;;;;8.05;4.72;;;384.80;2329.60;;;;;;5075737;28;20427;-74
2022/09/28 03:10:36;;;;;;;7.18;4.43;;;384.90;2329.60;;;;;;5075395;28;20050;-73
2022/09/28 03:13:03;;;;;;;7.80;4.47;;;384.90;2329.60;;;;;;5070366;28;20554;-73
2022/09/28 03:15:32;;;;;;;7.97;4.97;;;384.90;2329.60;;;;;;5072329;28;20024;-73
2022/09/28 03:17:58;;;;;;;14.48;5.65;;;384.90;2329.60;;;;;;5075059;28;20012;-74
2022/09/28 03:20:25;;;;;;;6.97;4.85;;;384.90;2329.60;;;;;;5072458;28;20377;-72
2022/09/28 03:22:51;;;;;;;8.15;5.30;;;384.70;2329.60;;;;;;5074883;28;20087;-73
2022/09/28 03:25:17;;;;;;;9.00;5.50;;;384.70;2329.60;;;;;;5075047;28;20143;-73
2022/09/28 03:27:43;;;;;;;8.35;5.75;;;384.70;2329.60;;;;;;5072083;28;20173;-74
2022/09/28 03:30:10;;;;;;;8.55;5.95;;;384.60;2329.60;;;;;;5071808;28;20111;-73
2022/09/28 03:32:36;;;;;;;9.13;5.55;;;384.70;2329.60;;;;;;5072908;28;20023;-73
2022/09/28 03:35:01;;;;;;;7.63;5.63;;;384.70;2329.60;;;;;;5078174;28;20047;-74
2022/09/28 03:37:27;;;;;;;12.70;5.63;;;384.70;2329.60;;;;;;5078618;28;20021;-73
2022/09/28 03:39:53;;;;;;;11.00;6.25;;;384.80;2329.60;;;;;;5071516;28;20029;-73
2022/09/28 03:42:19;;;;;;;11.68;7.10;;;384.70;2329.60;;;;;;5074391;28;20052;-73
2022/09/28 03:44:45;;;;;;;8.63;6.80;;;384.90;2329.60;;;;;;5074451;28;20032;-73
2022/09/28 03:47:11;;;;;;;9.35;6.05;;;384.70;2329.60;;;;;;5075036;28;20107;-73
2022/09/28 03:49:37;;;;;;;9.77;7.00;;;384.80;2329.60;;;;;;5071586;28;20453;-73
2022/09/28 03:52:03;;;;;;;7.88;5.93;;;384.70;2329.60;;;;;;5074398;28;20509;-73
2022/09/28 03:54:28;;;;;;;18.38;6.00;;;384.60;2329.60;;;;;;5074580;28;20120;-73
2022/09/28 03:56:54;;;;;;;9.40;6.70;;;384.70;2329.60;;;;;;5074612;28;20095;-73
2022/09/28 03:59:20;;;;;;;10.05;6.53;;;384.60;2329.60;;;;;;5073781;28;20025;-74
2022/09/28 04:01:49;;;;;;;10.43;6.10;;;384.60;2329.60;;;;;;5074478;28;20031;-73
2022/09/28 04:04:15;;;;;;;8.23;6.28;;;384.60;2329.60;;;;;;5071888;28;20025;-73
2022/09/28 04:06:41;;;;;;;14.13;6.82;;;384.60;2329.60;;;;;;5076355;28;20017;-74
2022/09/28 04:09:07;;;;;;;9.10;6.00;;;384.60;2329.60;;;;;;5074370;28;20107;-72
2022/09/28 04:11:33;;;;;;;12.05;6.45;;;384.60;2329.60;;;;;;5071268;28;20095;-74
2022/09/28 04:13:58;;;;;;;10.55;5.80;;;384.60;2329.60;;;;;;5071287;28;20033;-73
2022/09/28 04:16:24;;;;;;;9.25;5.68;;;384.70;2329.60;;;;;;5076879;28;20024;-74
2022/09/28 04:18:50;;;;;;;11.10;6.32;;;384.70;2329.60;;;;;;5071325;28;20028;-74
2022/09/28 04:21:20;;;;;;;10.80;6.30;;;384.70;2329.60;;;;;;5074315;28;20385;-74
2022/09/28 04:23:47;;;;;;;10.02;6.05;;;384.60;2329.60;;;;;;5071309;28;20024;-74
2022/09/28 04:26:18;;;;;;;8.75;5.95;;;384.40;2329.60;;;;;;5071369;28;20023;-73
2022/09/28 04:31:29;;;;;;;10.25;6.07;;;384.20;2329.60;;;;;;5069898;28;20032;-74
2022/09/28 04:33:56;;;;;;;11.02;6.50;;;384.10;2329.60;;;;;;5073939;28;20089;-73
2022/09/28 04:36:23;;;;;;;9.73;5.13;;;384.20;2329.60;;;;;;5072352;28;20470;-73
2022/09/28 04:38:51;;;;;;;10.07;5.35;;;384.20;2329.60;;;;;;5072489;28;20070;-73
2022/09/28 04:41:17;;;;;;;10.25;5.10;;;384.30;2329.60;;;;;;5070962;28;20024;-73
2022/09/28 04:43:45;;;;;;;7.75;4.20;;;384.20;2329.60;;;;;;5070794;28;20049;-73
2022/09/28 04:46:11;;;;;;;11.32;5.05;;;384.20;2329.60;;;;;;5074734;28;20513;-72
2022/09/28 04:48:37;;;;;;;10.05;5.38;;;384.20;2329.60;;;;;;5076665;28;20044;-74
2022/09/28 04:51:02;;;;;;;9.50;5.13;;;384.10;2329.60;;;;;;5073662;28;20028;-74
2022/09/28 04:53:29;;;;;;;11.32;5.75;;;384.10;2329.60;;;;;;5070738;28;20508;-74
2022/09/28 04:56:09;;;;;;;12.15;7.15;;;384.00;2329.60;;;;;;5070800;28;20032;-75
2022/09/28 04:58:36;;;;;;;14.35;6.63;;;384.00;2329.60;;;;;;5070627;28;20020;-74
2022/09/28 05:01:08;;;;;;;14.63;8.23;;;384.10;2329.60;;;;;;5070979;28;20028;-74
2022/09/28 05:03:34;;;;;;;14.55;7.90;;;384.10;2329.60;;;;;;5070826;28;20024;-74
2022/09/28 05:06:00;;;;;;;10.98;7.50;;;384.30;2329.60;;;;;;5068092;28;20021;-73
2022/09/28 05:08:26;;;;;;;16.00;8.70;;;384.20;2329.60;;;;;;5070844;28;20531;-75
2022/09/28 05:11:20;;;;;;;15.18;9.60;;;384.40;2329.60;;;;;;5073436;28;20042;-73
2022/09/28 05:13:47;;;;;;;15.70;9.90;;;384.50;2329.60;;;;;;5069024;28;20509;-74
2022/09/28 05:16:17;;;;;;;12.15;8.60;;;384.40;2329.60;;;;;;5072819;28;20104;-73
2022/09/28 05:18:42;;;;;;;15.10;8.07;;;384.40;2329.60;;;;;;5072144;28;20023;-76
2022/09/28 05:21:13;;;;;;;14.40;8.80;;;384.40;2329.60;;;;;;5077464;28;20024;-74
2022/09/28 05:23:40;;;;;;;14.75;9.30;;;384.40;2329.60;;;;;;5074878;28;20094;-74
2022/09/28 05:26:06;;;;;;;14.65;7.30;;;384.50;2329.60;;;;;;5095740;28;20123;-73
2022/09/28 05:28:32;;;;;;;14.65;8.02;;;384.50;2329.60;;;;;;5077404;28;20023;-74
2022/09/28 05:31:03;;;;;;;14.63;8.30;;;384.50;2329.60;;;;;;5085192;28;20101;-76
2022/09/28 05:33:30;;;;;;;12.57;8.05;;;384.60;2329.60;;;;;;5095018;28;20107;-72
2022/09/28 05:35:56;;;;;;;13.38;8.30;;;384.70;2329.60;;;;;;5079036;28;20031;-73
2022/09/28 05:38:22;;;;;;;12.73;7.47;;;384.70;2329.60;;;;;;5074995;28;20029;-73
2022/09/28 05:40:48;;;;;;;18.70;6.63;;;384.60;2329.60;;;;;;5077338;28;20477;-75
2022/09/28 05:43:14;;;;;;;12.43;7.68;;;384.60;2329.60;;;;;;5091582;28;20101;-74
2022/09/28 05:45:40;;;;;;;12.60;7.53;;;384.70;2329.60;;;;;;5089298;28;20043;-73
2022/09/28 05:48:05;;;;;;;13.55;8.70;;;384.70;2329.60;;;;;;5095214;28;20032;-74
2022/09/28 05:50:31;;;;;;;13.02;7.63;;;384.70;2329.60;;;;;;5094758;28;20034;-73
2022/09/28 05:53:05;;;;;;;12.68;8.48;;;384.80;2329.60;;;;;;5094817;28;20012;-73
2022/09/28 05:55:31;;;;;;;13.52;9.25;;;384.80;2329.60;;;;;;5094720;28;20080;-74
2022/09/28 05:58:03;;;;;;;15.75;10.43;;;384.90;2329.60;;;;;;5094731;28;20023;-73
2022/09/28 06:00:30;;;;;;;14.45;9.10;;;384.90;2329.60;;;;;;5094797;28;20019;-73
2022/09/28 06:03:01;;;;;;;17.00;9.70;;;384.90;2329.60;;;;;;5094592;28;20032;-72
2022/09/28 06:05:28;;;;;;;14.30;9.98;;;384.90;2329.60;;;;;;5094766;28;20032;-73
2022/09/28 06:07:57;;;;;;;13.85;9.43;;;384.90;2329.60;;;;;;5094541;28;20024;-73
2022/09/28 06:10:25;;;;;;;15.55;9.32;;;409.60;2355.20;;;;;;5094653;28;20032;-73
2022/09/28 06:12:53;;;;;;;14.60;9.75;;;409.70;2355.20;;;;;;5094322;28;20359;-74
2022/09/28 06:15:19;;;;;;;16.40;9.35;;;409.70;2355.20;;;;;;5094450;28;20380;-74
2022/09/28 06:17:44;;;;;;;13.02;8.50;;;409.60;2355.20;;;;;;5094414;28;20016;-74
2022/09/28 06:20:10;;;;;;;13.00;8.15;;;409.60;2355.20;;;;;;5094320;28;20028;-72
2022/09/28 06:22:37;;;;;;;11.25;6.97;;;384.90;2329.60;;;;;;5094293;28;20016;-74
2022/09/28 06:25:04;;;;;;;12.57;7.68;;;384.90;2329.60;;;;;;5094357;28;20020;-73
2022/09/28 06:27:29;;;;;;;11.90;7.07;;;410.00;2355.20;;;;;;5093875;28;20024;-79
2022/09/28 06:29:55;;;;;;;10.13;6.60;;;384.90;2329.60;;;;;;5094137;28;20137;-76
2022/09/28 06:32:21;;;;;;;11.65;7.20;;;384.90;2329.60;;;;;;5093232;28;20366;-76
2022/09/28 06:34:47;;;;;;;21.52;7.70;;;384.80;2329.60;;;;;;5093778;28;20107;-77
2022/09/28 06:37:12;;;;;;;13.35;8.07;;;384.70;2329.60;;;;;;5094292;28;20042;-75
2022/09/28 06:39:38;;;;;;;19.77;7.72;;;384.80;2329.60;;;;;;5093952;28;20027;-77
2022/09/28 06:58:11;;;;;;;14.95;7.75;;;384.60;2329.60;;;;;;5130318;27;20425;-75
2022/09/28 07:00:38;;;;;;;15.88;8.43;;;410.30;2355.20;;;;;;5122007;27;20358;-74
2022/09/28 07:03:11;;;;;;;10.90;6.28;;;410.20;2355.20;;;;;;5109673;28;20039;-75
2022/09/28 07:05:41;;;;;;;16.38;6.25;;;410.10;2355.20;;;;;;5109576;28;20509;-76
2022/09/28 07:08:07;;;;;;;10.80;6.53;;;410.00;2355.20;;;;;;5109661;28;20027;-75
2022/09/28 07:10:33;;;;;;;13.10;5.47;;;410.00;2355.20;;;;;;5107982;28;20110;-76
2022/09/28 07:13:03;;;;;;;9.60;4.28;;;410.20;2355.20;;;;;;5108261;28;20485;-76
2022/09/28 07:15:30;;;;;;;7.15;4.20;;;410.20;2355.20;;;;;;5104352;28;20023;-75
2022/09/28 07:18:00;;;;;;;10.73;3.80;;;410.20;2355.20;;;;;;5104786;28;20046;-75
2022/09/28 07:20:26;;;;;;;6.78;3.33;;;410.40;2355.20;;;;;;5108852;28;20092;-75
2022/09/28 07:22:55;;;;;;;7.70;3.83;;;410.30;2355.20;;;;;;5107173;28;20039;-75
2022/09/28 07:48:15;;;;;;;5.20;2.28;;;409.90;2355.20;;;;;;5130400;27;20428;-73
2022/09/28 07:50:52;;;;;;;3.53;1.65;;;435.30;2355.20;;;;;;5121854;27;20043;-75
2022/09/28 07:53:23;;;;;;;9.30;1.98;;;410.50;2355.20;;;;;;5109357;28;20095;-73
2022/09/28 07:56:08;;;;;;;4.97;1.50;;;410.30;2355.20;;;;;;5108449;28;20052;-73
2022/09/28 07:58:37;;;;;;;6.45;1.98;;;410.20;2355.20;;;;;;5122302;28;20035;-74
2022/09/28 08:01:10;;;;;;;3.55;1.60;;;410.20;2355.20;;;;;;5109271;28;20031;-74
2022/09/28 08:03:37;;;;;;;3.83;1.73;;;410.20;2355.20;;;;;;5108068;28;20058;-75
2022/09/28 08:06:06;;;;;;;5.60;2.03;;;410.10;2355.20;;;;;;5107947;28;20062;-74
2022/09/28 08:08:35;;;;;;;2.47;1.15;;;410.10;2355.20;;;;;;5107074;28;20036;-74
2022/09/28 08:11:02;;;;;;;2.60;1.20;;;410.10;2355.20;;;;;;5107810;28;20127;-73
2022/09/28 08:16:18;;;;;;;4.28;2.17;;;410.20;2355.20;;;;;;5374733;22;20044;-74
2022/09/28 08:18:43;;;;;;;3.75;1.67;;;410.20;2355.20;;;;;;5090602;28;20449;-74
2022/09/28 08:23:53;;;;;;;5.22;1.52;;;410.30;2355.20;;;;;;5116091;28;20112;-77
2022/09/28 08:26:19;;;;;;;4.78;1.38;;;410.50;2355.20;;;;;;5121292;28;20058;-74
2022/09/28 08:28:46;;;;;;;5.43;1.60;;;435.20;2355.20;;;;;;5110724;28;20379;-76
2022/09/28 08:31:12;;;;;;;3.72;1.30;;;435.30;2355.20;;;;;;5090593;28;20488;-75
2022/09/28 08:33:38;;;;;;;2.83;1.25;;;435.30;2355.20;;;;;;5092191;28;20024;-75
2022/09/28 08:36:04;;;;;;;4.55;1.60;;;435.40;2355.20;;;;;;5121245;28;20388;-76
2022/09/28 08:38:31;;;;;;;2.85;1.27;;;435.50;2355.20;;;;;;5108134;28;20020;-78
2022/09/28 08:41:23;;;;;;;3.80;1.35;;;435.40;2355.20;;;;;;5109093;28;20060;-78
2022/09/28 08:43:58;;;;;;;10.77;1.90;;;435.30;2355.20;;;;;;5108936;28;20016;-77
2022/09/28 08:46:29;;;;;;;3.45;1.73;;;435.50;2355.20;;;;;;5090299;28;20042;-78
2022/09/28 08:49:02;;;;;;;3.95;1.58;;;435.40;2355.20;;;;;;5076439;28;20028;-77
2022/09/28 08:51:42;;;;;;;2.75;1.70;;;435.50;2355.20;;;;;;5080128;28;20028;-78
2022/09/28 08:54:45;;;;;;;3.05;1.50;;;435.50;2355.20;;;;;;5075754;28;20035;-75
2022/09/28 08:57:14;;;;;;;3.75;1.73;;;435.50;2355.20;;;;;;5066150;28;20028;-78
2022/09/28 08:59:48;;;;;;;2.70;1.42;;;435.80;2355.20;;;;;;5074648;28;20371;-77
2022/09/28 09:02:22;;;;;;;4.78;1.92;;;435.80;2355.20;;;;;;5076766;28;20389;-77
2022/09/28 09:04:50;;;;;;;3.78;1.67;;;435.80;2355.20;;;;;;5079124;28;20023;-77
2022/09/28 09:07:46;;;;;;;5.63;1.70;;;435.80;2355.20;;;;;;5088360;28;20031;-77
2022/09/28 09:10:27;;;;;;;3.45;1.60;;;435.70;2355.20;;;;;;5009338;28;20030;-76
2022/09/28 09:13:17;;;;;;;4.47;2.03;;;435.90;2355.20;;;;;;5009275;28;20527;-76
2022/09/28 09:15:49;;;;;;;3.90;2.10;;;460.80;2380.80;;;;;;4984231;28;20078;-76
2022/09/28 09:18:40;;;;;;;4.13;1.90;;;460.80;2380.80;;;;;;4996177;28;20141;-77
2022/09/28 09:21:14;;;;;;;6.75;2.20;;;460.90;2380.80;;;;;;4996009;28;20041;-76
2022/09/28 09:23:46;;;;;;;3.00;1.90;;;460.90;2380.80;;;;;;4995916;28;20058;-77
2022/09/28 09:26:19;;;;;;;4.80;1.80;;;;;;;;;;4996010;28;20026;-77
2022/09/28 09:28:54;;;;;;;4.55;2.13;;;461.10;2380.80;;;;;;4998773;28;20041;-77
2022/09/28 09:31:37;;;;;;;3.80;1.70;;;461.10;2380.80;;;;;;5012650;28;20072;-78
2022/09/28 09:34:28;;;;;;;8.25;2.58;;;461.20;2380.80;;;;;;5009159;28;20523;-78
2022/09/28 09:37:15;;;;;;;3.25;1.88;;;461.30;2380.80;;;;;;5009154;28;20037;-77
2022/09/28 09:40:02;;;;;;;8.95;2.10;;;461.50;2380.80;;;;;;4995722;28;20045;-75
2022/09/28 09:42:43;;;;;;;4.75;2.15;;;461.50;2380.80;;;;;;4995613;28;20022;-77
2022/09/28 09:45:55;;;;;;;5.30;2.63;;;461.60;2380.80;;;;;;4995452;28;20188;-77
2022/09/28 09:48:35;;;;;;;3.83;2.38;;;461.50;2380.80;;;;;;5031677;28;20133;-77
2022/09/28 09:51:33;;;;;;;4.90;3.15;;;461.60;2380.80;;;;;;5034694;28;20018;-77
2022/09/28 09:54:02;;;;;;;6.13;2.05;;;461.70;2380.80;;;;;;5008412;28;20050;-76
2022/09/28 09:57:02;;;;;;;4.63;2.30;;;486.40;2380.80;;;;;;4992310;28;20046;-77
2022/09/28 09:59:36;;;;;;;11.88;1.80;;;461.60;2380.80;;;;;;4975043;28;20042;-77
2022/09/28 10:02:21;;;;;;;4.47;1.90;;;486.40;2380.80;;;;;;4991956;28;20060;-77
2022/09/28 10:04:49;;;;;;;6.65;1.63;;;461.70;2380.80;;;;;;4981169;28;20061;-78
2022/09/28 10:07:28;;;;;;;5.72;1.65;;;486.40;2380.80;;;;;;4975715;28;20125;-77
2022/09/28 10:09:57;;;;;;;3.08;1.50;;;486.40;2380.80;;;;;;4981120;28;20034;-77
2022/09/28 10:12:23;;;;;;;3.58;1.17;;;486.50;2380.80;;;;;;4991484;28;20066;-75
2022/09/28 10:14:49;;;;;;;1.73;1.40;;;486.90;2380.80;;;;;;4975746;28;20027;-77
2022/09/28 10:17:18;;;;;;;2.10;1.30;;;486.80;2380.80;;;;;;4991206;28;20046;-76
2022/09/28 10:19:45;;;;;;;6.43;1.48;;;486.60;2380.80;;;;;;5007064;28;20037;-74
2022/09/28 10:22:16;;;;;;;1.90;1.20;;;486.50;2380.80;;;;;;5023155;28;20064;-76
2022/09/28 10:24:49;;;;;;;2.83;1.30;;;486.50;2380.80;;;;;;4996675;28;20037;-77
2022/09/28 10:27:30;;;;;;;3.47;1.20;;;486.60;2380.80;;;;;;5006609;28;20108;-76
2022/09/28 10:30:22;;;;;;;3.17;1.52;;;486.70;2380.80;;;;;;5013848;28;20033;-75
2022/09/28 10:32:50;;;;;;;3.83;1.48;;;486.60;2380.80;;;;;;5075057;28;20016;-77
2022/09/28 10:35:15;;;;;;;2.83;1.58;;;486.60;2380.80;;;;;;5096795;28;20030;-76
2022/09/28 10:37:53;;;;;;;7.38;2.08;;;486.70;2380.80;;;;;;5085110;28;20032;-75
2022/09/28 10:40:43;;;;;;;4.35;2.35;;;486.70;2380.80;;;;;;5093104;28;20024;-75
2022/09/28 10:44:04;;;;;;;5.53;1.80;;;486.80;2380.80;;;;;;5074740;28;20078;-75
2022/09/28 10:46:33;;;;;;;9.25;2.72;;;487.00;2380.80;;;;;;5010615;28;20368;-74
2022/09/28 10:49:16;;;;;;;2.67;1.27;;;512.00;2380.80;;;;;;5015165;28;20076;-76
2022/09/28 10:51:53;;;;;;;6.18;1.70;;;512.20;2329.60;;;;;;5017629;28;20038;-76
2022/09/28 10:54:23;;;;;;;5.07;1.27;;;512.40;2380.80;;;;;;4994429;28;20514;-76
2022/09/28 10:56:51;;;;;;;5.88;1.80;;;512.90;2176.00;;;;;;5010476;28;20050;-75
2022/09/28 10:59:29;;;;;;;4.70;1.45;;;537.80;2252.80;;;;;;5010682;28;20109;-76
2022/09/28 11:01:58;;;;;;;1.88;1.10;;;537.80;2176.00;;;;;;5010356;28;20037;-75
2022/09/28 11:04:28;;;;;;;1.48;0.98;;;537.90;2124.80;;;;;;5010268;28;20108;-76
2022/09/28 11:06:57;;;;;;;2.58;1.30;;;538.10;2124.80;;;;;;5010694;28;20033;-75
2022/09/28 11:09:30;;;;;;;1.88;1.08;;;538.10;2124.80;;;;;;5010254;28;20134;-75
2022/09/28 11:12:02;;;;;;;2.10;1.25;;;538.30;2048.00;;;;;;5010417;28;20120;-74
2022/09/28 11:14:39;;;;;;;1.33;0.93;;;563.20;2176.00;;;;;;5010165;28;20100;-74
2022/09/28 11:41:30;;;;;;;1.70;1.15;;;563.60;2124.80;;;;;;5117148;27;20375;-75
2022/09/28 11:43:56;;;;;;;4.32;1.50;;;589.20;1792.00;;;;;;5110009;28;20024;-76
2022/09/28 11:46:40;;;;;;;2.75;1.20;;;589.30;1894.40;;;;;;5109238;28;20528;-76
2022/09/28 11:49:24;;;;;;;2.22;1.30;;;589.00;1792.00;;;;;;5109806;28;20020;-76
2022/09/28 11:51:54;;;;;;;6.93;1.52;;;589.40;1920.00;;;;;;5108041;28;20023;-76
2022/09/28 11:54:30;;;;;;;4.32;1.50;;;;;;;;;;5109563;28;20023;-75
2022/09/28 11:56:56;;;;;;;;;;;;;;;;;;5110192;28;20526;-78
2022/09/28 11:59:28;;;;;;;3.00;1.52;;;;;;;;;;5109203;28;19908;-77
2022/09/28 12:01:58;;;;;;;2.08;1.30;;;;;;;;;;5107837;28;20034;-75
2022/09/28 12:04:26;;;;;;;4.07;1.85;;;;;;;;;;5109444;28;20074;-76
2022/09/28 12:07:04;;;;;;;4.88;1.60;;;589.60;1843.20;;;;;;5107681;28;20028;-76
2022/09/28 12:09:36;;;;;;;2.45;1.55;;;589.20;1971.20;;;;;;5109157;28;20544;-75
2022/09/28 12:12:11;;;;;;;3.80;1.80;;;588.90;2022.40;;;;;;5109126;28;20020;-76
2022/09/28 12:14:39;;;;;;;2.47;1.67;;;564.10;2099.20;;;;;;5108850;28;20526;-77
2022/09/28 12:17:29;;;;;;;7.18;2.15;;;588.80;2099.20;;;;;;5109058;28;20116;-74
2022/09/28 12:20:29;;;;;;;7.20;2.30;;;564.10;1971.20;;;;;;5109026;28;20103;-75
2022/09/28 12:23:01;;;;;;;4.05;1.95;;;564.10;2073.60;;;;;;5109053;28;20028;-75
2022/09/28 12:25:33;;;;;;;2.60;1.60;;;588.90;2176.00;;;;;;5109086;28;20020;-76
2022/09/28 12:28:05;;;;;;;2.47;1.60;;;589.10;2176.00;;;;;;5109166;28;20027;-75
2022/09/28 12:30:36;;;;;;;3.05;1.85;;;589.30;2201.60;;;;;;5108584;28;20399;-75
2022/09/28 12:33:11;;;;;;;5.30;2.38;;;589.20;2099.20;;;;;;5108925;28;20020;-76
2022/09/28 12:36:10;;;;;;;2.83;2.10;;;564.00;2227.20;;;;;;5107217;28;20031;-75
2022/09/28 12:38:54;;;;;;;3.88;1.73;;;563.70;2380.80;;;;;;5107204;28;20089;-75
2022/09/28 12:41:33;;;;;;;7.53;1.90;;;563.30;2304.00;;;;;;5098075;28;20089;-76
2022/09/28 12:44:40;;;;;;;6.05;2.78;;;563.20;2432.00;;;;;;5095102;28;20020;-76
2022/09/28 12:47:25;;;;;;;3.72;2.28;;;538.50;2406.40;;;;;;5094953;28;20103;-77
2022/09/28 12:49:51;;;;;;;5.88;1.90;;;538.30;2380.80;;;;;;5080352;28;20108;-76
2022/09/28 12:52:37;;;;;;;3.85;1.67;;;538.30;2406.40;;;;;;5095174;28;20524;-76
2022/09/28 12:55:12;;;;;;;2.78;1.70;;;538.30;2406.40;;;;;;5096819;28;20036;-77
2022/09/28 12:58:18;;;;;;;10.00;3.33;;;538.40;2406.40;;;;;;5094118;28;20024;-77
2022/09/28 13:01:17;;;;;;;3.22;2.13;;;563.20;2432.00;;;;;;5074633;28;20032;-76
2022/09/28 13:04:02;;;;;;;2.70;1.77;;;563.30;2432.00;;;;;;5068471;28;20020;-76
2022/09/28 13:06:56;;;;;;;2.63;1.60;;;538.50;2406.40;;;;;;5093129;28;20020;-75
2022/09/28 13:09:25;;;;;;;5.68;2.38;;;563.20;2432.00;;;;;;5093198;28;20499;-76
2022/09/28 13:12:24;;;;;;;4.28;2.15;;;563.50;2432.00;;;;;;5094206;28;20028;-76
2022/09/28 13:15:17;;;;;;;3.97;2.22;;;563.80;2432.00;;;;;;5093074;28;20365;-76
2022/09/28 13:17:52;;;;;;;9.27;2.10;;;563.70;2432.00;;;;;;5082579;28;20025;-76
2022/09/28 13:20:36;;;;;;;4.20;1.95;;;563.70;2304.00;;;;;;5076103;28;20066;-76
2022/09/28 13:23:36;;;;;;;3.45;2.10;;;563.60;2432.00;;;;;;5072390;28;20016;-76
2022/09/28 13:26:35;;;;;;;7.82;2.25;;;563.30;2432.00;;;;;;5076438;28;20020;-76
2022/09/28 13:29:13;;;;;;;6.72;2.40;;;563.30;2432.00;;;;;;5062070;28;20056;-76
2022/09/28 13:31:51;;;;;;;7.07;2.00;;;538.50;2406.40;;;;;;5057374;28;20032;-78
2022/09/28 13:34:21;;;;;;;2.58;1.48;;;538.40;2406.40;;;;;;5058945;28;20029;-76
2022/09/28 13:37:20;;;;;;;4.80;2.15;;;538.40;2406.40;;;;;;5062289;28;20552;-76
2022/09/28 13:39:51;;;;;;;5.28;1.88;;;563.20;2432.00;;;;;;5061460;28;20195;-78
2022/09/28 13:42:43;;;;;;;2.30;1.58;;;563.50;2432.00;;;;;;5061165;28;20025;-76
2022/09/28 13:45:21;;;;;;;5.18;2.33;;;563.60;2432.00;;;;;;5064494;28;20044;-78
2022/09/28 13:48:11;;;;;;;5.18;1.80;;;563.60;2432.00;;;;;;5061505;28;20503;-77
2022/09/28 13:50:36;;;;;;;5.32;1.90;;;563.60;2432.00;;;;;;5065124;28;20037;-76
2022/09/28 13:53:18;;;;;;;3.20;1.65;;;563.60;2432.00;;;;;;5050379;28;20037;-76
2022/09/28 13:55:49;;;;;;;5.00;2.42;;;563.60;2432.00;;;;;;5051158;28;20017;-77
2022/09/28 13:58:24;;;;;;;4.25;2.45;;;563.50;2432.00;;;;;;5051265;28;20029;-77
2022/09/28 14:00:58;;;;;;;4.90;2.15;;;563.40;2432.00;;;;;;5068255;28;20075;-76